| ID | Date/Heure | Temp (Β°C) | HumiditΓ© (%) | Pression (hPa) | Tendance | LuminositΓ© (lux) | Situation |
|---|---|---|---|---|---|---|---|
| 432 | 04/02/2026 15:00 | 10.3 | 91.0 | 983.9 | β Stable | 14,628 | pluvieux-gris |
| 431 | 04/02/2026 14:45 | 10.1 | 91.0 | 983.5 | β Stable | 15,828 | pluvieux-gris |
| 430 | 04/02/2026 14:30 | 10.0 | 90.0 | 983.5 | β Stable | 16,572 | pluvieux-gris |
| 429 | 04/02/2026 14:15 | 9.8 | 89.0 | 983.5 | β Stable | 22,128 | pluvieux-gris |
| 428 | 04/02/2026 14:00 | 9.7 | 88.0 | 983.5 | β Stable | 26,484 | pluvieux-gris |
| 427 | 04/02/2026 13:45 | 9.7 | 88.0 | 983.8 | β Stable | 27,504 | pluvieux-gris |
| 426 | 04/02/2026 13:15 | 9.6 | 87.0 | 983.7 | β Stable | 18,612 | pluvieux-gris |
| 425 | 04/02/2026 13:00 | 9.1 | 88.0 | 983.7 | β Stable | 16,476 | pluvieux-gris |
| 424 | 04/02/2026 12:45 | 9.1 | 88.0 | 984.5 | β Stable | 16,668 | pluvieux-gris |
| 423 | 04/02/2026 12:30 | 9.0 | 88.0 | 984.5 | β Stable | 15,372 | pluvieux-gris |
| 422 | 04/02/2026 12:15 | 9.0 | 88.0 | 984.5 | β Stable | 14,532 | pluvieux-gris |
| 421 | 04/02/2026 11:45 | 9.0 | 85.0 | 984.8 | β Stable | 13,704 | pluvieux-gris |
| 420 | 04/02/2026 11:30 | 9.1 | 83.0 | 984.8 | β Stable | 13,884 | pluvieux-gris |
| 419 | 04/02/2026 11:15 | 9.2 | 80.0 | 984.8 | β Stable | 13,704 | pluvieux-gris |
| 418 | 04/02/2026 11:00 | 8.2 | 87.0 | 985.7 | β Stable | 13,332 | pluvieux-gris |
| 417 | 04/02/2026 10:45 | 8.3 | 86.0 | 985.6 | β Stable | 12,876 | pluvieux-gris |
| 416 | 04/02/2026 10:30 | 8.3 | 85.0 | 985.6 | β Stable | 13,332 | pluvieux-gris |
| 415 | 04/02/2026 10:15 | 8.3 | 84.0 | 985.6 | β Stable | 11,760 | pluvieux-gris |
| 414 | 04/02/2026 10:00 | 8.3 | 83.0 | 985.6 | β Stable | 10,920 | pluvieux-gris |
| 413 | 04/02/2026 09:15 | 7.3 | 85.0 | 985.8 | β Stable | 9,624 | pluvieux-gris |
| 412 | 04/02/2026 08:45 | 6.8 | 87.0 | 985.8 | β Stable | 7,404 | pluvieux-gris |
| 411 | 04/02/2026 08:30 | 6.6 | 88.0 | 985.8 | β Stable | 5,184 | pluvieux-gris |
| 410 | 04/02/2026 08:15 | 6.4 | 89.0 | 985.8 | β Stable | 3,708 | pluvieux-gris |
| 409 | 04/02/2026 08:00 | 6.3 | 90.0 | 985.8 | β Stable | 2,412 | pluvieux-gris |
| 408 | 04/02/2026 07:45 | 6.2 | 90.0 | 986.0 | β Stable | 1,200 | pluvieux-gris |
| 407 | 04/02/2026 07:30 | 6.2 | 91.0 | 986.0 | β Baisse | 96 | pluvieux-gris |
| 406 | 04/02/2026 07:15 | 6.1 | 91.0 | 986.0 | β Baisse | 0 | pluvieux-gris |
| 405 | 04/02/2026 06:45 | 6.1 | 92.0 | 986.2 | β Baisse | 0 | pluvieux-gris |
| 404 | 04/02/2026 06:30 | 6.0 | 92.0 | 986.2 | β Baisse | 0 | pluvieux-gris |
| 403 | 04/02/2026 06:15 | 6.0 | 93.0 | 986.2 | β Baisse | 0 | pluvieux-gris |
| 402 | 04/02/2026 06:00 | 6.0 | 93.0 | 986.2 | β Baisse | 0 | pluvieux-gris |
| 401 | 04/02/2026 05:45 | 6.0 | 93.0 | 987.3 | β Baisse | 0 | pluvieux-gris |
| 400 | 04/02/2026 05:30 | 5.8 | 92.0 | 987.3 | β Baisse | 0 | pluvieux-gris |
| 399 | 04/02/2026 05:15 | 5.7 | 91.0 | 987.3 | β Baisse | 0 | pluvieux-gris |
| 398 | 04/02/2026 05:00 | 5.7 | 91.0 | 987.3 | β Baisse | 0 | pluvieux-gris |
| 397 | 04/02/2026 04:45 | 5.6 | 91.0 | 988.5 | β Baisse | 0 | pluvieux-gris |
| 396 | 04/02/2026 04:30 | 5.5 | 92.0 | 988.5 | β Baisse | 0 | pluvieux-gris |
| 395 | 04/02/2026 04:15 | 5.4 | 92.0 | 988.5 | β Baisse | 0 | pluvieux-gris |
| 394 | 04/02/2026 04:00 | 5.3 | 92.0 | 988.5 | β Baisse | 0 | pluvieux-gris |
| 393 | 04/02/2026 03:45 | 5.3 | 92.0 | 989.3 | β Stable | 0 | pluvieux-gris |
| 392 | 04/02/2026 03:30 | 5.3 | 91.0 | 989.3 | β Baisse | 0 | pluvieux-gris |
| 391 | 04/02/2026 03:15 | 5.3 | 91.0 | 989.3 | β Baisse | 0 | pluvieux-gris |
| 390 | 04/02/2026 02:45 | 6.2 | 87.0 | 990.9 | β Stable | 0 | pluvieux-gris |
| 389 | 04/02/2026 02:30 | 6.2 | 85.0 | 990.9 | β Stable | 0 | pluvieux-gris |
| 388 | 04/02/2026 02:15 | 6.2 | 83.0 | 990.9 | β Stable | 0 | pluvieux-gris |
| 387 | 04/02/2026 02:00 | 6.2 | 82.0 | 990.9 | β Stable | 0 | pluvieux-gris |
| 386 | 04/02/2026 01:30 | 6.3 | 80.0 | 991.8 | β Stable | 0 | pluvieux-gris |
| 385 | 04/02/2026 01:15 | 6.4 | 79.0 | 991.8 | β Stable | 0 | pluvieux-gris |
| 384 | 04/02/2026 01:00 | 6.2 | 80.0 | 992.0 | β Stable | 0 | pluvieux-gris |
| 383 | 04/02/2026 00:45 | 6.1 | 81.0 | 993.0 | β Stable | 0 | pluvieux-gris |
| 382 | 04/02/2026 00:30 | 5.9 | 82.0 | 993.0 | β Stable | 0 | pluvieux-gris |
| 381 | 04/02/2026 00:15 | 5.9 | 83.0 | 993.0 | β Stable | 0 | pluvieux-gris |
| 380 | 04/02/2026 00:00 | 5.8 | 83.0 | 993.0 | β Stable | 0 | pluvieux-gris |
| 379 | 03/02/2026 23:45 | 5.9 | 83.0 | 993.5 | β Stable | 0 | pluvieux-gris |
| 378 | 03/02/2026 23:30 | 5.9 | 83.0 | 993.5 | β Stable | 0 | pluvieux-gris |
| 377 | 03/02/2026 23:15 | 6.1 | 83.0 | 993.5 | β Stable | 0 | pluvieux-gris |
| 376 | 03/02/2026 23:00 | 6.2 | 85.0 | 994.1 | β Stable | 0 | pluvieux-gris |
| 375 | 03/02/2026 22:45 | 6.3 | 85.0 | 994.5 | β Stable | 0 | pluvieux-gris |
| 374 | 03/02/2026 22:30 | 6.5 | 85.0 | 994.5 | β Stable | 0 | pluvieux-gris |
| 373 | 03/02/2026 22:15 | 6.7 | 84.0 | 994.5 | β Stable | 0 | pluvieux-gris |
| 372 | 03/02/2026 22:00 | 6.9 | 84.0 | 994.5 | β Stable | 0 | pluvieux-gris |
| 371 | 03/02/2026 21:45 | 7.0 | 83.0 | 994.6 | β Stable | 0 | pluvieux-gris |
| 370 | 03/02/2026 21:15 | 7.4 | 82.0 | 994.6 | β Stable | 0 | pluvieux-gris |
| 369 | 03/02/2026 21:00 | 7.5 | 81.0 | 994.6 | β Stable | 0 | pluvieux-gris |
| 368 | 03/02/2026 20:45 | 7.5 | 80.0 | 994.6 | β Stable | 0 | pluvieux-gris |
| 367 | 03/02/2026 20:30 | 7.6 | 79.0 | 994.6 | β Stable | 0 | pluvieux-gris |
| 366 | 03/02/2026 20:15 | 7.6 | 77.0 | 994.6 | β Stable | 0 | pluvieux-gris |
| 365 | 03/02/2026 20:00 | 7.7 | 76.0 | 994.6 | β Stable | 0 | pluvieux-gris |
| 364 | 03/02/2026 19:45 | 7.9 | 75.0 | 994.6 | β Stable | 0 | pluvieux-gris |
| 363 | 03/02/2026 19:30 | 8.1 | 74.0 | 994.6 | β Stable | 0 | pluvieux-gris |
| 362 | 03/02/2026 19:15 | 8.4 | 73.0 | 994.6 | β Stable | 0 | pluvieux-gris |
| 361 | 03/02/2026 19:00 | 8.7 | 72.0 | 994.6 | β Stable | 0 | pluvieux-gris |
| 360 | 03/02/2026 18:45 | 9.2 | 71.0 | 994.8 | β Stable | 0 | pluvieux-gris |
| 359 | 03/02/2026 18:30 | 9.5 | 69.0 | 994.8 | β Stable | 0 | frais-stable |
| 358 | 03/02/2026 18:15 | 9.8 | 67.0 | 994.8 | β Stable | 0 | frais-stable |
| 357 | 03/02/2026 18:00 | 10.2 | 65.0 | 994.8 | β Stable | 0 | frais-stable |
| 356 | 03/02/2026 17:45 | 10.6 | 63.0 | 995.2 | β Stable | 0 | frais-stable |
| 355 | 03/02/2026 17:30 | 11.0 | 61.0 | 995.2 | β Stable | 0 | frais-stable |
| 354 | 03/02/2026 17:15 | 11.5 | 59.0 | 995.2 | β Stable | 0 | frais-stable |
| 353 | 03/02/2026 16:45 | 12.2 | 57.0 | 995.2 | β Stable | 7,596 | frais-stable |
| 352 | 03/02/2026 16:15 | 12.7 | 56.0 | 995.2 | β Stable | 17,040 | frais-stable |
| 351 | 03/02/2026 15:45 | 13.0 | 53.0 | 995.2 | β Stable | 25,368 | frais-stable |
| 350 | 03/02/2026 15:30 | 13.0 | 52.0 | 995.2 | β Stable | 22,128 | frais-stable |
| 349 | 03/02/2026 15:15 | 13.0 | 51.0 | 995.2 | β Stable | 26,208 | frais-stable |
| 348 | 03/02/2026 15:00 | 13.0 | 51.0 | 995.2 | β Stable | 30,000 | frais-stable |
| 347 | 03/02/2026 14:45 | 13.1 | 51.0 | 995.2 | β Stable | 32,412 | frais-stable |
| 346 | 03/02/2026 14:30 | 13.2 | 51.0 | 995.2 | β Stable | 39,072 | frais-stable |
| 345 | 03/02/2026 14:15 | 13.2 | 51.0 | 995.2 | β Stable | 43,056 | frais-stable |
| 344 | 03/02/2026 13:45 | 13.3 | 53.0 | 995.6 | β Stable | 48,144 | frais-stable |
| 343 | 03/02/2026 13:30 | 13.2 | 54.0 | 995.6 | β Stable | 51,852 | frais-stable |
| 342 | 03/02/2026 13:15 | 13.1 | 55.0 | 995.5 | β Stable | 55,272 | frais-stable |
| 341 | 03/02/2026 12:45 | 12.6 | 58.0 | 995.7 | β Stable | 58,428 | frais-stable |
| 340 | 03/02/2026 12:30 | 12.5 | 58.0 | 995.7 | β Stable | 58,428 | frais-stable |
| 339 | 03/02/2026 12:15 | 12.5 | 59.0 | 995.7 | β Stable | 58,608 | frais-stable |
| 338 | 03/02/2026 11:45 | 12.2 | 60.0 | 995.6 | β Stable | 57,684 | frais-stable |
| 337 | 03/02/2026 11:30 | 12.0 | 61.0 | 995.6 | β Stable | 54,816 | frais-stable |
| 336 | 03/02/2026 11:15 | 11.8 | 62.0 | 995.6 | β Stable | 53,244 | frais-stable |
| 335 | 03/02/2026 10:45 | 11.3 | 66.0 | 995.1 | β Stable | 49,260 | frais-stable |
| 334 | 03/02/2026 10:15 | 10.5 | 70.0 | 995.1 | β Stable | 37,404 | pluvieux-gris |
| 333 | 03/02/2026 10:00 | 10.2 | 71.0 | 995.1 | β Stable | 33,888 | pluvieux-gris |